sensor_id;sensor_type;location;lat;lon;timestamp;temperature;humidity
21906;DHT22;11117;48.644;9.006;2023-06-14T00:00:27;13.40;86.40
21906;DHT22;11117;48.644;9.006;2023-06-14T00:02:53;13.40;86.90
21906;DHT22;11117;48.644;9.006;2023-06-14T00:05:18;13.40;86.40
21906;DHT22;11117;48.644;9.006;2023-06-14T00:07:44;13.40;86.50
21906;DHT22;11117;48.644;9.006;2023-06-14T00:10:12;13.40;86.70
21906;DHT22;11117;48.644;9.006;2023-06-14T00:12:38;13.40;87.50
21906;DHT22;11117;48.644;9.006;2023-06-14T00:15:04;13.40;87.40
21906;DHT22;11117;48.644;9.006;2023-06-14T00:17:30;13.40;87.50
21906;DHT22;11117;48.644;9.006;2023-06-14T00:19:59;13.40;87.50
21906;DHT22;11117;48.644;9.006;2023-06-14T00:22:25;13.30;87.90
21906;DHT22;11117;48.644;9.006;2023-06-14T00:24:51;13.30;87.80
21906;DHT22;11117;48.644;9.006;2023-06-14T00:27:17;13.20;87.70
21906;DHT22;11117;48.644;9.006;2023-06-14T00:29:43;13.20;87.60
21906;DHT22;11117;48.644;9.006;2023-06-14T00:32:09;13.20;88.80
21906;DHT22;11117;48.644;9.006;2023-06-14T00:34:35;13.20;89.20
21906;DHT22;11117;48.644;9.006;2023-06-14T00:37:01;13.10;88.30
21906;DHT22;11117;48.644;9.006;2023-06-14T00:39:26;13.10;87.90
21906;DHT22;11117;48.644;9.006;2023-06-14T00:41:52;13.10;87.50
21906;DHT22;11117;48.644;9.006;2023-06-14T00:44:18;13.10;88.20
21906;DHT22;11117;48.644;9.006;2023-06-14T00:46:45;13.00;88.60
21906;DHT22;11117;48.644;9.006;2023-06-14T00:49:14;13.00;89.10
21906;DHT22;11117;48.644;9.006;2023-06-14T00:51:39;12.90;89.00
21906;DHT22;11117;48.644;9.006;2023-06-14T00:54:05;12.90;89.30
21906;DHT22;11117;48.644;9.006;2023-06-14T00:56:31;12.90;89.30
21906;DHT22;11117;48.644;9.006;2023-06-14T00:58:57;12.80;89.90
21906;DHT22;11117;48.644;9.006;2023-06-14T01:01:23;12.80;89.90
21906;DHT22;11117;48.644;9.006;2023-06-14T01:03:49;12.80;90.10
21906;DHT22;11117;48.644;9.006;2023-06-14T01:06:19;12.80;90.40
21906;DHT22;11117;48.644;9.006;2023-06-14T01:12:21;12.70;90.10
21906;DHT22;11117;48.644;9.006;2023-06-14T01:14:50;12.70;90.10
21906;DHT22;11117;48.644;9.006;2023-06-14T01:17:17;12.70;90.00
21906;DHT22;11117;48.644;9.006;2023-06-14T01:19:43;12.70;89.80
21906;DHT22;11117;48.644;9.006;2023-06-14T01:22:08;12.60;90.10
21906;DHT22;11117;48.644;9.006;2023-06-14T01:24:35;12.60;90.10
21906;DHT22;11117;48.644;9.006;2023-06-14T01:27:01;12.50;90.60
21906;DHT22;11117;48.644;9.006;2023-06-14T01:29:28;12.50;91.00
21906;DHT22;11117;48.644;9.006;2023-06-14T01:31:54;12.40;90.60
21906;DHT22;11117;48.644;9.006;2023-06-14T01:34:20;12.40;90.50
21906;DHT22;11117;48.644;9.006;2023-06-14T01:36:47;12.40;90.70
21906;DHT22;11117;48.644;9.006;2023-06-14T01:39:14;12.30;90.80
21906;DHT22;11117;48.644;9.006;2023-06-14T01:41:40;12.30;90.90
21906;DHT22;11117;48.644;9.006;2023-06-14T01:44:06;12.30;91.20
21906;DHT22;11117;48.644;9.006;2023-06-14T01:46:32;12.30;91.20
21906;DHT22;11117;48.644;9.006;2023-06-14T01:48:59;12.20;91.20
21906;DHT22;11117;48.644;9.006;2023-06-14T01:51:24;12.10;91.10
21906;DHT22;11117;48.644;9.006;2023-06-14T01:53:50;12.10;91.30
21906;DHT22;11117;48.644;9.006;2023-06-14T01:56:16;12.00;91.60
21906;DHT22;11117;48.644;9.006;2023-06-14T01:58:41;11.90;92.10
21906;DHT22;11117;48.644;9.006;2023-06-14T02:01:07;11.90;92.40
21906;DHT22;11117;48.644;9.006;2023-06-14T02:03:32;11.90;92.60
21906;DHT22;11117;48.644;9.006;2023-06-14T02:05:58;12.00;92.70
21906;DHT22;11117;48.644;9.006;2023-06-14T02:08:24;11.80;92.90
21906;DHT22;11117;48.644;9.006;2023-06-14T02:10:50;11.90;93.30
21906;DHT22;11117;48.644;9.006;2023-06-14T02:13:15;11.80;93.40
21906;DHT22;11117;48.644;9.006;2023-06-14T02:15:41;11.70;93.60
21906;DHT22;11117;48.644;9.006;2023-06-14T02:18:06;11.60;93.70
21906;DHT22;11117;48.644;9.006;2023-06-14T02:20:32;11.60;94.00
21906;DHT22;11117;48.644;9.006;2023-06-14T02:22:58;11.50;94.10
21906;DHT22;11117;48.644;9.006;2023-06-14T02:25:23;11.50;94.10
21906;DHT22;11117;48.644;9.006;2023-06-14T02:27:49;11.60;94.10
21906;DHT22;11117;48.644;9.006;2023-06-14T02:30:14;11.50;94.10
21906;DHT22;11117;48.644;9.006;2023-06-14T02:32:40;11.50;94.60
21906;DHT22;11117;48.644;9.006;2023-06-14T02:35:06;11.50;94.60
21906;DHT22;11117;48.644;9.006;2023-06-14T02:37:32;11.50;94.90
21906;DHT22;11117;48.644;9.006;2023-06-14T02:39:59;11.50;95.00
21906;DHT22;11117;48.644;9.006;2023-06-14T02:42:24;11.40;95.00
21906;DHT22;11117;48.644;9.006;2023-06-14T02:44:50;11.30;95.30
21906;DHT22;11117;48.644;9.006;2023-06-14T02:47:15;11.30;95.60
21906;DHT22;11117;48.644;9.006;2023-06-14T02:49:41;11.30;95.60
21906;DHT22;11117;48.644;9.006;2023-06-14T02:52:06;11.20;95.40
21906;DHT22;11117;48.644;9.006;2023-06-14T02:54:35;11.30;95.40
21906;DHT22;11117;48.644;9.006;2023-06-14T02:57:01;11.20;95.70
21906;DHT22;11117;48.644;9.006;2023-06-14T02:59:26;11.20;96.00
21906;DHT22;11117;48.644;9.006;2023-06-14T03:01:52;11.10;96.20
21906;DHT22;11117;48.644;9.006;2023-06-14T03:04:17;11.10;96.60
21906;DHT22;11117;48.644;9.006;2023-06-14T03:06:43;11.10;96.40
21906;DHT22;11117;48.644;9.006;2023-06-14T03:09:08;11.10;96.70
21906;DHT22;11117;48.644;9.006;2023-06-14T03:11:34;11.10;96.70
21906;DHT22;11117;48.644;9.006;2023-06-14T03:14:00;11.10;96.90
21906;DHT22;11117;48.644;9.006;2023-06-14T03:16:25;11.10;96.90
21906;DHT22;11117;48.644;9.006;2023-06-14T03:18:51;11.00;96.70
21906;DHT22;11117;48.644;9.006;2023-06-14T03:21:21;11.10;96.70
21906;DHT22;11117;48.644;9.006;2023-06-14T03:23:47;11.10;96.60
21906;DHT22;11117;48.644;9.006;2023-06-14T03:26:13;11.00;96.60
21906;DHT22;11117;48.644;9.006;2023-06-14T03:28:39;11.00;96.70
21906;DHT22;11117;48.644;9.006;2023-06-14T03:31:05;11.00;96.70
21906;DHT22;11117;48.644;9.006;2023-06-14T03:33:30;11.10;96.70
21906;DHT22;11117;48.644;9.006;2023-06-14T03:35:55;11.10;96.70
21906;DHT22;11117;48.644;9.006;2023-06-14T03:38:21;11.10;96.50
21906;DHT22;11117;48.644;9.006;2023-06-14T03:40:47;11.10;96.60
21906;DHT22;11117;48.644;9.006;2023-06-14T03:43:12;11.10;96.40
21906;DHT22;11117;48.644;9.006;2023-06-14T03:45:38;11.10;96.40
21906;DHT22;11117;48.644;9.006;2023-06-14T03:48:03;11.00;96.50
21906;DHT22;11117;48.644;9.006;2023-06-14T03:50:29;11.00;96.40
21906;DHT22;11117;48.644;9.006;2023-06-14T03:52:55;11.00;96.40
21906;DHT22;11117;48.644;9.006;2023-06-14T03:55:20;11.10;96.20
21906;DHT22;11117;48.644;9.006;2023-06-14T03:57:46;11.10;96.30
21906;DHT22;11117;48.644;9.006;2023-06-14T04:00:12;11.20;96.30
21906;DHT22;11117;48.644;9.006;2023-06-14T04:02:37;11.30;96.40
21906;DHT22;11117;48.644;9.006;2023-06-14T04:05:03;11.30;96.30
21906;DHT22;11117;48.644;9.006;2023-06-14T04:07:29;11.40;96.00
21906;DHT22;11117;48.644;9.006;2023-06-14T04:09:55;11.60;95.90
21906;DHT22;11117;48.644;9.006;2023-06-14T04:12:20;11.70;95.50
21906;DHT22;11117;48.644;9.006;2023-06-14T04:14:46;11.90;95.10
21906;DHT22;11117;48.644;9.006;2023-06-14T04:17:11;12.10;95.00
21906;DHT22;11117;48.644;9.006;2023-06-14T04:19:37;12.30;94.80
21906;DHT22;11117;48.644;9.006;2023-06-14T04:22:03;12.60;94.30
21906;DHT22;11117;48.644;9.006;2023-06-14T04:24:32;12.90;94.10
21906;DHT22;11117;48.644;9.006;2023-06-14T04:26:58;13.20;93.80
21906;DHT22;11117;48.644;9.006;2023-06-14T04:29:25;13.50;92.90
21906;DHT22;11117;48.644;9.006;2023-06-14T04:31:50;13.80;92.40
21906;DHT22;11117;48.644;9.006;2023-06-14T04:34:16;14.10;91.50
21906;DHT22;11117;48.644;9.006;2023-06-14T04:36:42;14.50;90.80
21906;DHT22;11117;48.644;9.006;2023-06-14T04:39:08;14.80;90.30
21906;DHT22;11117;48.644;9.006;2023-06-14T04:41:33;15.20;90.20
21906;DHT22;11117;48.644;9.006;2023-06-14T04:44:00;15.50;89.00
21906;DHT22;11117;48.644;9.006;2023-06-14T04:46:26;15.90;87.80
21906;DHT22;11117;48.644;9.006;2023-06-14T04:48:51;16.10;86.40
21906;DHT22;11117;48.644;9.006;2023-06-14T04:51:17;16.20;86.30
21906;DHT22;11117;48.644;9.006;2023-06-14T04:53:42;16.30;85.20
21906;DHT22;11117;48.644;9.006;2023-06-14T04:56:08;16.30;85.20
21906;DHT22;11117;48.644;9.006;2023-06-14T04:58:33;16.30;85.00
21906;DHT22;11117;48.644;9.006;2023-06-14T05:00:59;16.20;84.70
21906;DHT22;11117;48.644;9.006;2023-06-14T05:03:25;16.20;84.60
21906;DHT22;11117;48.644;9.006;2023-06-14T05:05:51;16.10;85.10
21906;DHT22;11117;48.644;9.006;2023-06-14T05:08:17;16.40;84.30
21906;DHT22;11117;48.644;9.006;2023-06-14T05:10:42;16.70;83.60
21906;DHT22;11117;48.644;9.006;2023-06-14T05:13:08;16.90;83.30
21906;DHT22;11117;48.644;9.006;2023-06-14T05:15:33;17.20;82.30
21906;DHT22;11117;48.644;9.006;2023-06-14T05:17:59;17.00;81.60
21906;DHT22;11117;48.644;9.006;2023-06-14T05:20:25;17.10;82.10
21906;DHT22;11117;48.644;9.006;2023-06-14T05:22:54;17.60;81.40
21906;DHT22;11117;48.644;9.006;2023-06-14T05:25:22;17.70;80.60
21906;DHT22;11117;48.644;9.006;2023-06-14T05:27:48;17.80;79.70
21906;DHT22;11117;48.644;9.006;2023-06-14T05:30:15;18.20;80.60
21906;DHT22;11117;48.644;9.006;2023-06-14T05:32:41;18.40;78.90
21906;DHT22;11117;48.644;9.006;2023-06-14T05:35:06;18.30;78.80
21906;DHT22;11117;48.644;9.006;2023-06-14T05:37:32;18.30;78.50
21906;DHT22;11117;48.644;9.006;2023-06-14T05:39:58;18.70;78.50
21906;DHT22;11117;48.644;9.006;2023-06-14T05:42:23;18.80;78.50
21906;DHT22;11117;48.644;9.006;2023-06-14T05:44:51;19.10;77.80
21906;DHT22;11117;48.644;9.006;2023-06-14T05:47:17;19.50;77.40
21906;DHT22;11117;48.644;9.006;2023-06-14T05:49:42;19.70;76.30
21906;DHT22;11117;48.644;9.006;2023-06-14T05:52:08;19.50;75.80
21906;DHT22;11117;48.644;9.006;2023-06-14T05:54:35;19.70;74.40
21906;DHT22;11117;48.644;9.006;2023-06-14T05:57:00;20.00;73.90
21906;DHT22;11117;48.644;9.006;2023-06-14T05:59:26;20.10;73.10
21906;DHT22;11117;48.644;9.006;2023-06-14T06:01:51;20.10;72.50
21906;DHT22;11117;48.644;9.006;2023-06-14T06:04:17;20.30;72.00
21906;DHT22;11117;48.644;9.006;2023-06-14T06:06:42;20.50;71.60
21906;DHT22;11117;48.644;9.006;2023-06-14T06:09:08;20.60;71.60
21906;DHT22;11117;48.644;9.006;2023-06-14T06:11:33;20.60;69.80
21906;DHT22;11117;48.644;9.006;2023-06-14T06:13:59;20.60;70.50
21906;DHT22;11117;48.644;9.006;2023-06-14T06:16:24;20.50;71.20
21906;DHT22;11117;48.644;9.006;2023-06-14T06:18:50;20.50;70.60
21906;DHT22;11117;48.644;9.006;2023-06-14T06:21:15;20.20;71.70
21906;DHT22;11117;48.644;9.006;2023-06-14T06:23:41;20.30;71.40
21906;DHT22;11117;48.644;9.006;2023-06-14T06:26:06;20.30;72.50
21906;DHT22;11117;48.644;9.006;2023-06-14T06:28:32;20.50;72.30
21906;DHT22;11117;48.644;9.006;2023-06-14T06:30:58;20.50;71.40
21906;DHT22;11117;48.644;9.006;2023-06-14T06:33:23;20.70;72.10
21906;DHT22;11117;48.644;9.006;2023-06-14T06:35:49;20.80;71.20
21906;DHT22;11117;48.644;9.006;2023-06-14T06:38:14;20.90;71.80
21906;DHT22;11117;48.644;9.006;2023-06-14T06:40:40;21.10;71.00
21906;DHT22;11117;48.644;9.006;2023-06-14T06:43:05;21.20;70.40
21906;DHT22;11117;48.644;9.006;2023-06-14T06:45:31;21.20;72.50
21906;DHT22;11117;48.644;9.006;2023-06-14T06:47:56;20.80;71.80
21906;DHT22;11117;48.644;9.006;2023-06-14T06:50:22;20.80;71.70
21906;DHT22;11117;48.644;9.006;2023-06-14T06:52:47;20.50;72.30
21906;DHT22;11117;48.644;9.006;2023-06-14T06:55:13;20.50;75.60
21906;DHT22;11117;48.644;9.006;2023-06-14T06:57:38;20.60;76.70
21906;DHT22;11117;48.644;9.006;2023-06-14T07:00:04;20.50;76.00
21906;DHT22;11117;48.644;9.006;2023-06-14T07:02:30;20.40;76.00
21906;DHT22;11117;48.644;9.006;2023-06-14T07:04:56;20.60;75.60
21906;DHT22;11117;48.644;9.006;2023-06-14T07:07:21;20.70;75.20
21906;DHT22;11117;48.644;9.006;2023-06-14T07:09:47;20.60;75.90
21906;DHT22;11117;48.644;9.006;2023-06-14T07:12:12;20.80;75.40
21906;DHT22;11117;48.644;9.006;2023-06-14T07:14:38;20.80;74.30
21906;DHT22;11117;48.644;9.006;2023-06-14T07:17:03;20.90;73.90
21906;DHT22;11117;48.644;9.006;2023-06-14T07:19:29;20.90;70.80
21906;DHT22;11117;48.644;9.006;2023-06-14T07:21:54;20.90;74.20
21906;DHT22;11117;48.644;9.006;2023-06-14T07:24:20;21.10;73.50
21906;DHT22;11117;48.644;9.006;2023-06-14T07:26:45;21.10;72.00
21906;DHT22;11117;48.644;9.006;2023-06-14T07:29:11;21.20;72.10
21906;DHT22;11117;48.644;9.006;2023-06-14T07:31:37;21.20;71.70
21906;DHT22;11117;48.644;9.006;2023-06-14T07:34:03;21.30;71.70
21906;DHT22;11117;48.644;9.006;2023-06-14T07:36:28;21.30;71.10
21906;DHT22;11117;48.644;9.006;2023-06-14T07:38:54;21.30;70.40
21906;DHT22;11117;48.644;9.006;2023-06-14T07:41:19;21.30;70.20
21906;DHT22;11117;48.644;9.006;2023-06-14T07:43:45;21.30;69.80
21906;DHT22;11117;48.644;9.006;2023-06-14T07:46:10;21.40;68.90
21906;DHT22;11117;48.644;9.006;2023-06-14T07:48:36;21.30;69.10
21906;DHT22;11117;48.644;9.006;2023-06-14T07:51:02;21.40;68.50
21906;DHT22;11117;48.644;9.006;2023-06-14T07:53:27;21.30;68.40
21906;DHT22;11117;48.644;9.006;2023-06-14T07:55:53;21.30;69.20
21906;DHT22;11117;48.644;9.006;2023-06-14T07:58:18;21.30;69.70
21906;DHT22;11117;48.644;9.006;2023-06-14T08:00:44;21.20;68.70
21906;DHT22;11117;48.644;9.006;2023-06-14T08:03:09;21.20;69.10
21906;DHT22;11117;48.644;9.006;2023-06-14T08:05:35;21.20;68.50
21906;DHT22;11117;48.644;9.006;2023-06-14T08:08:00;21.10;68.30
21906;DHT22;11117;48.644;9.006;2023-06-14T08:10:27;21.10;68.70
21906;DHT22;11117;48.644;9.006;2023-06-14T08:12:52;21.10;69.50
21906;DHT22;11117;48.644;9.006;2023-06-14T08:15:18;21.20;69.30
21906;DHT22;11117;48.644;9.006;2023-06-14T08:17:44;21.40;69.70
21906;DHT22;11117;48.644;9.006;2023-06-14T08:20:10;21.50;69.10
21906;DHT22;11117;48.644;9.006;2023-06-14T08:22:35;21.60;67.90
21906;DHT22;11117;48.644;9.006;2023-06-14T08:25:01;21.60;67.60
21906;DHT22;11117;48.644;9.006;2023-06-14T08:27:27;21.60;68.10
21906;DHT22;11117;48.644;9.006;2023-06-14T08:29:52;21.70;69.10
21906;DHT22;11117;48.644;9.006;2023-06-14T08:32:18;21.60;68.50
21906;DHT22;11117;48.644;9.006;2023-06-14T08:34:43;21.60;68.00
21906;DHT22;11117;48.644;9.006;2023-06-14T08:37:09;21.50;68.00
21906;DHT22;11117;48.644;9.006;2023-06-14T08:39:35;21.70;69.00
21906;DHT22;11117;48.644;9.006;2023-06-14T08:42:02;21.90;68.60
21906;DHT22;11117;48.644;9.006;2023-06-14T08:44:29;22.00;68.80
21906;DHT22;11117;48.644;9.006;2023-06-14T08:46:56;22.00;69.00
21906;DHT22;11117;48.644;9.006;2023-06-14T08:49:22;22.10;67.70
21906;DHT22;11117;48.644;9.006;2023-06-14T08:51:52;22.10;68.00
21906;DHT22;11117;48.644;9.006;2023-06-14T08:54:20;22.20;69.90
21906;DHT22;11117;48.644;9.006;2023-06-14T08:56:46;22.30;68.30
21906;DHT22;11117;48.644;9.006;2023-06-14T08:59:12;22.30;67.70
21906;DHT22;11117;48.644;9.006;2023-06-14T09:01:38;22.40;69.10
21906;DHT22;11117;48.644;9.006;2023-06-14T09:04:04;22.30;67.20
21906;DHT22;11117;48.644;9.006;2023-06-14T09:06:29;22.40;68.00
21906;DHT22;11117;48.644;9.006;2023-06-14T09:08:55;22.40;67.60
21906;DHT22;11117;48.644;9.006;2023-06-14T09:11:21;22.40;66.90
21906;DHT22;11117;48.644;9.006;2023-06-14T09:13:49;22.50;67.10
21906;DHT22;11117;48.644;9.006;2023-06-14T09:16:15;22.60;67.60
21906;DHT22;11117;48.644;9.006;2023-06-14T09:18:43;22.70;67.60
21906;DHT22;11117;48.644;9.006;2023-06-14T09:21:09;22.80;66.60
21906;DHT22;11117;48.644;9.006;2023-06-14T09:23:46;22.40;66.80
21906;DHT22;11117;48.644;9.006;2023-06-14T09:26:16;22.30;67.30
21906;DHT22;11117;48.644;9.006;2023-06-14T09:28:46;22.40;67.10
21906;DHT22;11117;48.644;9.006;2023-06-14T09:31:16;22.30;66.40
21906;DHT22;11117;48.644;9.006;2023-06-14T09:33:46;22.30;67.60
21906;DHT22;11117;48.644;9.006;2023-06-14T09:36:15;22.30;67.40
21906;DHT22;11117;48.644;9.006;2023-06-14T09:38:40;22.40;67.60
21906;DHT22;11117;48.644;9.006;2023-06-14T09:41:06;22.70;67.50
21906;DHT22;11117;48.644;9.006;2023-06-14T09:43:33;22.80;66.40
21906;DHT22;11117;48.644;9.006;2023-06-14T09:46:00;22.60;66.50
21906;DHT22;11117;48.644;9.006;2023-06-14T09:48:26;22.70;65.70
21906;DHT22;11117;48.644;9.006;2023-06-14T09:50:52;22.90;66.30
21906;DHT22;11117;48.644;9.006;2023-06-14T09:53:21;23.10;66.80
21906;DHT22;11117;48.644;9.006;2023-06-14T09:55:49;23.20;66.40
21906;DHT22;11117;48.644;9.006;2023-06-14T09:58:16;23.30;65.70
21906;DHT22;11117;48.644;9.006;2023-06-14T10:00:45;23.00;63.50
21906;DHT22;11117;48.644;9.006;2023-06-14T10:03:13;23.10;63.30
21906;DHT22;11117;48.644;9.006;2023-06-14T10:05:43;23.20;63.20
21906;DHT22;11117;48.644;9.006;2023-06-14T10:08:13;23.30;63.10
21906;DHT22;11117;48.644;9.006;2023-06-14T10:10:39;23.50;62.10
21906;DHT22;11117;48.644;9.006;2023-06-14T10:13:05;23.70;64.60
21906;DHT22;11117;48.644;9.006;2023-06-14T10:15:52;23.90;62.40
21906;DHT22;11117;48.644;9.006;2023-06-14T10:18:31;24.00;63.70
21906;DHT22;11117;48.644;9.006;2023-06-14T10:21:28;23.90;61.90
21906;DHT22;11117;48.644;9.006;2023-06-14T10:23:50;23.90;60.40
21906;DHT22;11117;48.644;9.006;2023-06-14T10:26:20;23.60;59.20
21906;DHT22;11117;48.644;9.006;2023-06-14T10:29:00;23.40;61.00
21906;DHT22;11117;48.644;9.006;2023-06-14T10:31:45;23.00;62.10
21906;DHT22;11117;48.644;9.006;2023-06-14T10:34:12;22.70;62.60
21906;DHT22;11117;48.644;9.006;2023-06-14T10:36:42;22.80;62.50
21906;DHT22;11117;48.644;9.006;2023-06-14T10:39:14;22.60;62.00
21906;DHT22;11117;48.644;9.006;2023-06-14T10:41:41;22.80;62.70
21906;DHT22;11117;48.644;9.006;2023-06-14T10:46:48;23.30;62.00
21906;DHT22;11117;48.644;9.006;2023-06-14T10:49:21;23.20;60.70
21906;DHT22;11117;48.644;9.006;2023-06-14T10:52:02;23.50;61.20
21906;DHT22;11117;48.644;9.006;2023-06-14T10:54:28;23.50;61.40
21906;DHT22;11117;48.644;9.006;2023-06-14T10:56:54;23.60;63.50
21906;DHT22;11117;48.644;9.006;2023-06-14T10:59:20;23.60;61.80
21906;DHT22;11117;48.644;9.006;2023-06-14T11:04:50;22.70;63.00
21906;DHT22;11117;48.644;9.006;2023-06-14T11:10:38;22.30;62.20
21906;DHT22;11117;48.644;9.006;2023-06-14T11:13:10;22.60;62.70
21906;DHT22;11117;48.644;9.006;2023-06-14T11:15:36;22.60;63.20
21906;DHT22;11117;48.644;9.006;2023-06-14T11:18:07;22.70;62.90
21906;DHT22;11117;48.644;9.006;2023-06-14T11:20:35;22.80;62.20
21906;DHT22;11117;48.644;9.006;2023-06-14T11:23:01;22.90;62.10
21906;DHT22;11117;48.644;9.006;2023-06-14T11:25:27;22.90;61.60
21906;DHT22;11117;48.644;9.006;2023-06-14T11:27:53;23.00;61.80
21906;DHT22;11117;48.644;9.006;2023-06-14T11:30:19;23.20;61.60
21906;DHT22;11117;48.644;9.006;2023-06-14T11:32:48;23.50;62.80
21906;DHT22;11117;48.644;9.006;2023-06-14T11:35:15;23.70;62.60
21906;DHT22;11117;48.644;9.006;2023-06-14T11:37:41;23.70;62.20
21906;DHT22;11117;48.644;9.006;2023-06-14T11:40:08;24.00;61.50
21906;DHT22;11117;48.644;9.006;2023-06-14T11:42:34;24.30;61.50
21906;DHT22;11117;48.644;9.006;2023-06-14T11:45:00;24.60;61.00
21906;DHT22;11117;48.644;9.006;2023-06-14T11:47:31;25.00;59.60
21906;DHT22;11117;48.644;9.006;2023-06-14T11:49:58;24.60;60.60
21906;DHT22;11117;48.644;9.006;2023-06-14T11:52:24;24.60;59.40
21906;DHT22;11117;48.644;9.006;2023-06-14T11:54:50;24.60;60.10
21906;DHT22;11117;48.644;9.006;2023-06-14T11:57:17;24.50;60.20
21906;DHT22;11117;48.644;9.006;2023-06-14T11:59:44;24.70;59.90
21906;DHT22;11117;48.644;9.006;2023-06-14T12:02:14;24.60;59.10
21906;DHT22;11117;48.644;9.006;2023-06-14T12:04:43;24.60;58.80
21906;DHT22;11117;48.644;9.006;2023-06-14T12:07:09;24.80;60.30
21906;DHT22;11117;48.644;9.006;2023-06-14T12:09:35;25.00;59.60
21906;DHT22;11117;48.644;9.006;2023-06-14T12:12:01;24.70;60.50
21906;DHT22;11117;48.644;9.006;2023-06-14T12:14:30;24.50;60.40
21906;DHT22;11117;48.644;9.006;2023-06-14T12:17:04;24.20;60.40
21906;DHT22;11117;48.644;9.006;2023-06-14T12:19:30;24.20;61.50
21906;DHT22;11117;48.644;9.006;2023-06-14T12:21:59;24.20;61.90
21906;DHT22;11117;48.644;9.006;2023-06-14T12:24:28;24.10;63.10
21906;DHT22;11117;48.644;9.006;2023-06-14T12:26:53;23.80;62.50
21906;DHT22;11117;48.644;9.006;2023-06-14T12:29:19;23.40;62.20
21906;DHT22;11117;48.644;9.006;2023-06-14T12:31:45;23.60;63.40
21906;DHT22;11117;48.644;9.006;2023-06-14T12:34:10;23.70;63.20
21906;DHT22;11117;48.644;9.006;2023-06-14T12:36:38;23.80;61.50
21906;DHT22;11117;48.644;9.006;2023-06-14T12:39:04;23.70;61.20
21906;DHT22;11117;48.644;9.006;2023-06-14T12:41:29;23.60;60.40
21906;DHT22;11117;48.644;9.006;2023-06-14T12:43:55;23.70;59.80
21906;DHT22;11117;48.644;9.006;2023-06-14T12:46:20;23.90;59.70
21906;DHT22;11117;48.644;9.006;2023-06-14T12:48:46;24.20;59.60
21906;DHT22;11117;48.644;9.006;2023-06-14T12:51:11;24.60;61.30
21906;DHT22;11117;48.644;9.006;2023-06-14T12:53:37;24.40;60.60
21906;DHT22;11117;48.644;9.006;2023-06-14T12:56:02;24.10;60.50
21906;DHT22;11117;48.644;9.006;2023-06-14T12:58:28;24.00;61.00
21906;DHT22;11117;48.644;9.006;2023-06-14T13:00:54;23.80;61.90
21906;DHT22;11117;48.644;9.006;2023-06-14T13:03:19;23.40;61.10
21906;DHT22;11117;48.644;9.006;2023-06-14T13:05:45;23.30;61.40
21906;DHT22;11117;48.644;9.006;2023-06-14T13:08:10;23.40;62.20
21906;DHT22;11117;48.644;9.006;2023-06-14T13:10:36;23.60;61.50
21906;DHT22;11117;48.644;9.006;2023-06-14T13:13:01;23.60;61.30
21906;DHT22;11117;48.644;9.006;2023-06-14T13:15:27;23.50;60.90
21906;DHT22;11117;48.644;9.006;2023-06-14T13:17:53;23.70;59.90
21906;DHT22;11117;48.644;9.006;2023-06-14T13:20:18;24.00;61.30
21906;DHT22;11117;48.644;9.006;2023-06-14T13:22:44;24.40;60.60
21906;DHT22;11117;48.644;9.006;2023-06-14T13:25:09;24.50;60.80
21906;DHT22;11117;48.644;9.006;2023-06-14T13:27:35;24.30;60.40
21906;DHT22;11117;48.644;9.006;2023-06-14T13:30:01;23.90;60.90
21906;DHT22;11117;48.644;9.006;2023-06-14T13:32:26;23.90;61.20
21906;DHT22;11117;48.644;9.006;2023-06-14T13:34:52;23.30;60.80
21906;DHT22;11117;48.644;9.006;2023-06-14T13:37:17;23.40;61.30
21906;DHT22;11117;48.644;9.006;2023-06-14T13:39:43;23.60;62.20
21906;DHT22;11117;48.644;9.006;2023-06-14T13:42:09;23.50;60.20
21906;DHT22;11117;48.644;9.006;2023-06-14T13:44:34;23.60;60.50
21906;DHT22;11117;48.644;9.006;2023-06-14T13:47:00;23.80;60.70
21906;DHT22;11117;48.644;9.006;2023-06-14T13:49:26;23.90;61.10
21906;DHT22;11117;48.644;9.006;2023-06-14T13:51:51;24.00;61.40
21906;DHT22;11117;48.644;9.006;2023-06-14T13:54:20;24.00;60.50
21906;DHT22;11117;48.644;9.006;2023-06-14T13:56:45;24.00;60.20
21906;DHT22;11117;48.644;9.006;2023-06-14T13:59:11;24.20;60.00
21906;DHT22;11117;48.644;9.006;2023-06-14T14:01:38;24.40;59.70
21906;DHT22;11117;48.644;9.006;2023-06-14T14:04:04;24.40;59.80
21906;DHT22;11117;48.644;9.006;2023-06-14T14:06:30;24.20;60.00
21906;DHT22;11117;48.644;9.006;2023-06-14T14:08:55;24.20;60.00
21906;DHT22;11117;48.644;9.006;2023-06-14T14:11:21;23.80;60.40
21906;DHT22;11117;48.644;9.006;2023-06-14T14:13:46;24.00;60.50
21906;DHT22;11117;48.644;9.006;2023-06-14T14:16:13;23.80;59.80
21906;DHT22;11117;48.644;9.006;2023-06-14T14:18:38;23.70;59.90
21906;DHT22;11117;48.644;9.006;2023-06-14T14:21:04;23.80;60.60
21906;DHT22;11117;48.644;9.006;2023-06-14T14:23:30;23.70;59.60
21906;DHT22;11117;48.644;9.006;2023-06-14T14:25:56;23.90;60.70
21906;DHT22;11117;48.644;9.006;2023-06-14T14:28:21;23.80;60.10
21906;DHT22;11117;48.644;9.006;2023-06-14T14:30:47;23.80;61.90
21906;DHT22;11117;48.644;9.006;2023-06-14T14:33:14;24.00;60.90
21906;DHT22;11117;48.644;9.006;2023-06-14T14:35:39;23.90;60.50
21906;DHT22;11117;48.644;9.006;2023-06-14T14:38:05;24.10;59.70
21906;DHT22;11117;48.644;9.006;2023-06-14T14:40:30;24.20;59.80
21906;DHT22;11117;48.644;9.006;2023-06-14T14:42:56;24.10;59.80
21906;DHT22;11117;48.644;9.006;2023-06-14T14:45:21;23.80;59.60
21906;DHT22;11117;48.644;9.006;2023-06-14T14:47:47;23.70;60.70
21906;DHT22;11117;48.644;9.006;2023-06-14T14:50:12;23.80;61.00
21906;DHT22;11117;48.644;9.006;2023-06-14T14:52:38;24.10;60.50
21906;DHT22;11117;48.644;9.006;2023-06-14T14:55:04;24.00;60.50
21906;DHT22;11117;48.644;9.006;2023-06-14T14:57:29;24.10;60.40
21906;DHT22;11117;48.644;9.006;2023-06-14T14:59:55;24.30;60.00
21906;DHT22;11117;48.644;9.006;2023-06-14T15:02:21;24.10;60.80
21906;DHT22;11117;48.644;9.006;2023-06-14T15:04:46;24.30;60.80
21906;DHT22;11117;48.644;9.006;2023-06-14T15:07:12;24.20;60.10
21906;DHT22;11117;48.644;9.006;2023-06-14T15:09:38;24.10;61.20
21906;DHT22;11117;48.644;9.006;2023-06-14T15:12:04;24.10;60.60
21906;DHT22;11117;48.644;9.006;2023-06-14T15:14:29;24.20;60.60
21906;DHT22;11117;48.644;9.006;2023-06-14T15:16:55;24.20;61.90
21906;DHT22;11117;48.644;9.006;2023-06-14T15:19:20;24.50;60.00
21906;DHT22;11117;48.644;9.006;2023-06-14T15:21:46;24.60;59.70
21906;DHT22;11117;48.644;9.006;2023-06-14T15:24:11;24.60;60.00
21906;DHT22;11117;48.644;9.006;2023-06-14T15:26:38;24.50;60.10
21906;DHT22;11117;48.644;9.006;2023-06-14T15:29:04;24.60;60.60
21906;DHT22;11117;48.644;9.006;2023-06-14T15:31:29;24.60;60.80
21906;DHT22;11117;48.644;9.006;2023-06-14T15:33:55;24.40;61.20
21906;DHT22;11117;48.644;9.006;2023-06-14T15:36:20;24.40;61.40